Time;durP1;ratioP1;P1;durP2;ratioP2;P2;SDS_P1;SDS_P2;PMS_P1;PMS_P2;Temp;Humidity;BMP_temperature;BMP_pressure;BME280_temperature;BME280_humidity;BME280_pressure;Samples;Min_cycle;Max_cycle;Signal;HPM_P1;HPM_P2
2022/02/23 00:00:09;;;;;;;0.50;0.50;;;;;;;6.23;77.59;97369.13;29394;218;64009;-63
2022/02/23 00:00:44;;;;;;;0.50;0.50;;;;;;;6.27;77.57;97367.53;29395;250;63009;-73
2022/02/23 00:01:19;;;;;;;0.50;0.50;;;;;;;6.23;77.45;97378.03;29395;202;63005;-72
2022/02/23 00:01:51;;;;;;;0.50;0.50;;;;;;;6.26;77.58;97382.06;29395;214;63009;-57
2022/02/23 00:02:22;;;;;;;0.50;0.50;;;;;;;6.29;77.36;97381.56;29395;202;63005;-62
2022/02/23 00:02:53;;;;;;;0.50;0.50;;;;;;;6.31;77.54;97368.66;29395;211;63009;-58
2022/02/23 00:03:25;;;;;;;0.50;0.50;;;;;;;6.32;77.19;97375.66;29395;217;63004;-55
2022/02/23 00:03:56;;;;;;;0.50;0.50;;;;;;;6.30;77.43;97365.16;29394;216;64013;-72
2022/02/23 00:04:31;;;;;;;0.50;0.50;;;;;;;6.26;77.55;97371.28;29395;219;63004;-61
2022/02/23 00:05:03;;;;;;;0.50;0.50;;;;;;;6.21;77.72;97373.97;29395;207;63009;-70
2022/02/23 00:05:36;;;;;;;0.50;0.50;;;;;;;6.18;77.80;97369.88;29395;328;63000;-57
2022/02/23 00:06:09;;;;;;;0.50;0.50;;;;;;;6.20;78.12;97383.09;29395;223;63008;-70
2022/02/23 00:06:41;;;;;;;0.50;0.50;;;;;;;6.26;77.66;97384.75;29395;202;63005;-64
2022/02/23 00:07:12;;;;;;;0.50;0.50;;;;;;;6.24;77.87;97379.63;29395;203;63009;-58
2022/02/23 00:07:43;;;;;;;0.50;0.50;;;;;;;6.29;77.39;97373.47;29395;271;63005;-63
2022/02/23 00:08:14;;;;;;;0.50;0.50;;;;;;;6.28;77.81;97369.16;29395;237;63009;-72
2022/02/23 00:08:47;;;;;;;0.50;0.50;;;;;;;6.24;78.09;97379.63;29395;212;63005;-62
2022/02/23 00:09:18;;;;;;;0.50;0.50;;;;;;;6.19;78.34;97376.09;29394;204;64013;-67
2022/02/23 00:09:53;;;;;;;0.50;0.50;;;;;;;6.16;78.03;97387.37;29394;208;64009;-56
2022/02/23 00:10:24;;;;;;;0.50;0.50;;;;;;;6.17;78.40;97373.66;29395;233;63009;-68
2022/02/23 00:10:56;;;;;;;0.50;0.50;;;;;;;6.15;78.48;97369.56;29395;197;63004;-58
2022/02/23 00:11:28;;;;;;;0.50;0.50;;;;;;;6.10;78.56;97369.50;29395;202;63009;-67
2022/02/23 00:11:59;;;;;;;0.50;0.50;;;;;;;6.08;78.48;97379.72;29395;247;63004;-59
2022/02/23 00:12:31;;;;;;;0.50;0.50;;;;;;;6.08;78.73;97374.34;29394;290;64013;-54
2022/02/23 00:13:03;;;;;;;0.50;0.50;;;;;;;6.10;78.78;97375.72;29395;197;63004;-71
2022/02/23 00:13:34;;;;;;;0.50;0.50;;;;;;;6.14;78.81;97374.16;29395;213;63004;-67
2022/02/23 00:14:05;;;;;;;0.50;0.50;;;;;;;6.17;78.59;97381.72;29395;240;63005;-68
2022/02/23 00:14:39;;;;;;;0.50;0.50;;;;;;;6.18;78.50;97385.25;29394;322;64014;-73
2022/02/23 00:15:11;;;;;;;0.50;0.50;;;;;;;6.19;78.51;97384.16;29395;280;63005;-54
2022/02/23 00:15:42;;;;;;;0.50;0.50;;;;;;;6.17;78.77;97383.59;29395;200;63009;-69
2022/02/23 00:16:13;;;;;;;0.50;0.50;;;;;;;6.22;78.41;97383.66;29395;212;63005;-68
2022/02/23 00:16:45;;;;;;;0.50;0.50;;;;;;;6.21;78.34;97368.56;29394;203;64013;-63
2022/02/23 00:17:16;;;;;;;0.50;0.50;;;;;;;6.22;78.30;97386.37;29395;225;63005;-69
2022/02/23 00:17:50;;;;;;;0.50;0.50;;;;;;;6.22;78.49;97372.88;29395;196;63009;-69
2022/02/23 00:18:22;;;;;;;0.50;0.50;;;;;;;6.27;78.34;97375.62;29395;202;63004;-67
2022/02/23 00:18:53;;;;;;;0.50;0.50;;;;;;;6.28;78.09;97379.94;29395;304;63009;-68
2022/02/23 00:19:24;;;;;;;0.50;0.50;;;;;;;6.24;78.13;97374.25;29395;240;63004;-70
2022/02/23 00:19:56;;;;;;;0.50;0.50;;;;;;;6.26;78.30;97371.28;29395;316;63008;-63
2022/02/23 00:20:27;;;;;;;0.50;0.50;;;;;;;6.21;78.73;97373.97;29395;202;63004;-68
2022/02/23 00:20:58;;;;;;;0.50;0.50;;;;;;;6.21;78.78;97368.56;29394;216;64013;-66
2022/02/23 00:21:30;;;;;;;0.50;0.50;;;;;;;6.19;78.72;97378.78;29394;238;64004;-70
2022/02/23 00:22:05;;;;;;;0.50;0.50;;;;;;;6.19;79.01;97368.00;29395;197;63009;-51
2022/02/23 00:22:37;;;;;;;0.50;0.50;;;;;;;6.20;78.90;97367.75;29395;206;63005;-65
2022/02/23 00:23:08;;;;;;;0.50;0.50;;;;;;;6.20;78.64;97375.84;29395;243;63009;-65
2022/02/23 00:23:39;;;;;;;0.50;0.50;;;;;;;6.19;78.93;97366.13;29395;214;63005;-58
2022/02/23 00:24:11;;;;;;;0.50;0.50;;;;;;;6.16;78.87;97365.81;29395;214;63009;-64
2022/02/23 00:24:42;;;;;;;0.50;0.50;;;;;;;6.10;79.71;97377.59;29395;277;63005;-68
2022/02/23 00:25:16;;;;;;;0.60;0.60;;;;;;;6.05;79.91;97371.09;29394;238;64013;-67
2022/02/23 00:25:48;;;;;;;0.50;0.50;;;;;;;6.06;79.57;97371.91;29394;232;64009;-67
2022/02/23 00:26:19;;;;;;;0.82;0.82;;;;;;;6.11;79.89;97368.44;29395;218;63009;-70
2022/02/23 00:26:50;;;;;;;0.50;0.50;;;;;;;6.18;79.39;97371.75;29395;225;63004;-71
2022/02/23 00:27:21;;;;;;;0.50;0.50;;;;;;;6.16;79.41;97365.81;29395;197;63018;-72
2022/02/23 00:27:52;;;;;;;0.50;0.50;;;;;;;6.15;79.38;97373.09;29395;208;63004;-61
2022/02/23 00:28:27;;;;;;;0.50;0.50;;;;;;;6.17;79.05;97368.25;29395;206;63018;-67
2022/02/23 00:28:58;;;;;;;0.50;0.50;;;;;;;6.15;79.34;97373.09;29395;243;63005;-67
2022/02/23 00:29:30;;;;;;;0.50;0.50;;;;;;;6.15;79.28;97370.38;29395;222;63009;-64
2022/02/23 00:30:04;;;;;;;0.50;0.50;;;;;;;6.15;79.33;97381.16;29394;239;64009;-66
2022/02/23 00:30:35;;;;;;;0.50;0.50;;;;;;;6.10;79.76;97380.28;29395;220;63009;-67
2022/02/23 00:31:06;;;;;;;0.60;0.60;;;;;;;6.07;79.73;97372.72;29395;199;63014;-63
2022/02/23 00:31:38;;;;;;;0.50;0.50;;;;;;;6.01;80.06;97369.94;29395;334;63009;-67
2022/02/23 00:32:09;;;;;;;0.50;0.50;;;;;;;6.00;79.98;97379.09;29394;214;64009;-66
2022/02/23 00:32:40;;;;;;;0.50;0.50;;;;;;;6.00;80.22;97379.09;29395;224;63009;-68
2022/02/23 00:33:12;;;;;;;0.50;0.50;;;;;;;6.02;80.17;97382.34;29395;248;63004;-68
2022/02/23 00:33:43;;;;;;;0.50;0.50;;;;;;;5.99;80.30;97388.25;29395;295;63009;-67
2022/02/23 00:34:14;;;;;;;0.50;0.50;;;;;;;5.98;80.67;97389.31;29395;223;63004;-70
2022/02/23 00:34:46;;;;;;;0.50;0.50;;;;;;;5.96;80.51;97383.34;29395;202;63009;-65
2022/02/23 00:35:20;;;;;;;0.50;0.50;;;;;;;6.05;80.19;97387.25;29395;236;63004;-64
2022/02/23 00:35:51;;;;;;;0.50;0.50;;;;;;;6.02;80.86;97376.97;29395;324;63009;-65
2022/02/23 00:36:22;;;;;;;0.50;0.50;;;;;;;6.05;80.71;97381.03;29395;222;63005;-65
2022/02/23 00:36:54;;;;;;;0.50;0.50;;;;;;;6.03;80.67;97384.00;29395;199;63009;-68
2022/02/23 00:37:26;;;;;;;0.50;0.50;;;;;;;6.07;80.33;97392.38;29394;215;64009;-69
2022/02/23 00:37:58;;;;;;;0.60;0.60;;;;;;;6.11;80.22;97388.13;29395;235;63009;-64
2022/02/23 00:38:29;;;;;;;0.50;0.50;;;;;;;6.08;80.59;97396.72;29395;223;63005;-68
2022/02/23 00:39:00;;;;;;;0.50;0.50;;;;;;;6.03;80.82;97399.34;29395;276;63009;-72
2022/02/23 00:39:32;;;;;;;0.50;0.50;;;;;;;6.05;80.77;97391.81;29395;201;63005;-70
2022/02/23 00:40:04;;;;;;;0.50;0.50;;;;;;;6.07;80.64;97395.06;29395;374;63009;-63
2022/02/23 00:40:35;;;;;;;0.50;0.50;;;;;;;6.05;80.77;97395.31;29395;209;63004;-58
2022/02/23 00:41:06;;;;;;;0.50;0.50;;;;;;;6.01;80.93;97394.19;29395;216;63023;-70
2022/02/23 00:41:37;;;;;;;0.60;0.60;;;;;;;6.05;80.69;97398.03;29395;212;63004;-57
2022/02/23 00:42:10;;;;;;;0.50;0.50;;;;;;;6.08;80.98;97404.78;29395;207;63009;-66
2022/02/23 00:42:42;;;;;;;0.50;0.50;;;;;;;6.05;81.37;97392.63;29394;200;64008;-53
2022/02/23 00:43:13;;;;;;;0.50;0.50;;;;;;;6.08;81.16;97409.37;29395;274;63008;-57
2022/02/23 00:43:44;;;;;;;0.50;0.50;;;;;;;6.13;80.71;97404.03;29395;323;63005;-66
2022/02/23 00:44:16;;;;;;;3.30;0.77;;;;;;;6.19;80.93;97408.41;29395;207;63009;-62
2022/02/23 00:44:47;;;;;;;0.50;0.50;;;;;;;6.16;80.92;97398.97;29395;365;63005;-62
2022/02/23 00:45:20;;;;;;;0.50;0.50;;;;;;;6.15;80.52;97401.91;29395;202;63009;-65
2022/02/23 00:45:52;;;;;;;0.50;0.50;;;;;;;6.14;80.97;97397.59;29395;216;63005;-57
2022/02/23 00:46:23;;;;;;;0.60;0.60;;;;;;;6.13;81.05;97404.03;29395;282;63009;-68
2022/02/23 00:46:59;;;;;;;0.50;0.50;;;;;;;6.12;81.07;97399.72;29395;198;63005;-62
2022/02/23 00:47:31;;;;;;;0.50;0.50;;;;;;;6.10;81.06;97409.94;29395;197;63009;-68
2022/02/23 00:48:04;;;;;;;0.50;0.50;;;;;;;6.05;81.17;97400.72;29394;236;64009;-62
2022/02/23 00:48:35;;;;;;;0.50;0.50;;;;;;;6.02;81.24;97408.47;29395;228;63009;-69
2022/02/23 00:49:07;;;;;;;0.50;0.50;;;;;;;6.03;81.22;97410.94;29395;197;63004;-62
2022/02/23 00:49:39;;;;;;;0.50;0.50;;;;;;;6.04;81.32;97409.03;29395;206;63009;-62
2022/02/23 00:50:10;;;;;;;0.50;0.50;;;;;;;6.05;81.33;97408.78;29395;223;63004;-53
2022/02/23 00:50:44;;;;;;;0.50;0.50;;;;;;;6.11;81.24;97406.16;29395;208;63008;-60
2022/02/23 00:51:19;;;;;;;0.50;0.50;;;;;;;6.19;81.34;97417.31;29394;227;64009;-51
2022/02/23 00:51:51;;;;;;;0.50;0.50;;;;;;;6.21;80.98;97407.09;29394;214;64014;-63
2022/02/23 00:52:22;;;;;;;0.50;0.50;;;;;;;6.21;81.39;97409.81;29395;238;63005;-65
2022/02/23 00:52:53;;;;;;;0.50;0.50;;;;;;;6.15;81.60;97410.81;29395;289;63009;-67
2022/02/23 00:53:24;;;;;;;0.50;0.50;;;;;;;6.14;81.51;97411.06;29395;197;63005;-61
2022/02/23 00:53:58;;;;;;;0.50;0.50;;;;;;;6.17;81.44;97411.38;29395;204;63009;-67
2022/02/23 00:54:29;;;;;;;0.50;0.50;;;;;;;6.20;81.26;97410.06;29395;199;63005;-69
2022/02/23 00:55:00;;;;;;;0.50;0.50;;;;;;;6.25;81.51;97412.78;29395;203;63009;-57
2022/02/23 00:55:33;;;;;;;0.50;0.50;;;;;;;6.23;81.21;97420.34;29395;255;63004;-69
2022/02/23 00:56:05;;;;;;;0.50;0.50;;;;;;;6.23;81.48;97420.34;29395;202;63009;-66
2022/02/23 00:56:36;;;;;;;0.50;0.50;;;;;;;6.26;81.23;97414.41;29395;199;63004;-59
2022/02/23 00:57:09;;;;;;;0.50;0.50;;;;;;;6.26;81.40;97425.19;29394;241;64013;-70
2022/02/23 00:57:41;;;;;;;0.50;0.50;;;;;;;6.27;81.29;97416.03;29394;275;64008;-53
2022/02/23 00:58:12;;;;;;;0.50;0.50;;;;;;;6.32;81.14;97410.72;29395;196;63008;-57
2022/02/23 00:58:44;;;;;;;0.50;0.50;;;;;;;6.30;81.17;97410.16;29395;206;63005;-69
2022/02/23 00:59:16;;;;;;;0.50;0.50;;;;;;;6.27;81.52;97413.34;29395;216;63009;-65
2022/02/23 00:59:47;;;;;;;0.50;0.50;;;;;;;6.27;81.61;97419.53;29395;228;63005;-60
2022/02/23 01:00:19;;;;;;;0.50;0.50;;;;;;;6.27;81.39;97421.44;29394;305;64013;-62
2022/02/23 01:00:50;;;;;;;0.50;0.50;;;;;;;6.23;81.75;97413.06;29395;205;63005;-66
2022/02/23 01:01:21;;;;;;;0.50;0.50;;;;;;;6.23;81.72;97415.75;29395;226;63009;-68
2022/02/23 01:01:53;;;;;;;0.50;0.50;;;;;;;6.19;81.74;97419.19;29394;330;64009;-65
2022/02/23 01:02:27;;;;;;;0.50;0.50;;;;;;;6.13;82.18;97422.91;29395;199;63009;-61
2022/02/23 01:02:59;;;;;;;0.50;0.50;;;;;;;6.15;82.06;97412.69;29395;197;63006;-57
2022/02/23 01:03:30;;;;;;;0.50;0.50;;;;;;;6.14;82.36;97411.88;29395;240;63009;-68
2022/02/23 01:04:02;;;;;;;0.50;0.50;;;;;;;6.12;82.32;97410.50;29394;218;64022;-68
2022/02/23 01:04:33;;;;;;;0.50;0.50;;;;;;;6.08;82.18;97412.88;29394;232;64013;-70
2022/02/23 01:05:05;;;;;;;0.50;0.50;;;;;;;6.07;82.42;97416.63;29395;198;63004;-70
2022/02/23 01:05:37;;;;;;;0.50;0.50;;;;;;;6.06;82.63;97415.00;29395;309;63008;-60
2022/02/23 01:06:08;;;;;;;0.50;0.50;;;;;;;6.12;82.65;97418.56;29395;231;63005;-70
2022/02/23 01:06:39;;;;;;;0.50;0.50;;;;;;;6.12;82.32;97413.19;29395;261;63009;-65
2022/02/23 01:07:10;;;;;;;0.50;0.50;;;;;;;6.13;82.47;97414.81;29395;236;63005;-62
2022/02/23 01:07:42;;;;;;;0.50;0.50;;;;;;;6.16;82.40;97420.50;29395;233;63009;-62
2022/02/23 01:08:13;;;;;;;0.50;0.50;;;;;;;6.15;82.29;97412.69;29394;199;64009;-58
2022/02/23 01:08:45;;;;;;;0.50;0.50;;;;;;;6.10;82.21;97421.50;29395;235;63009;-69
2022/02/23 01:09:16;;;;;;;0.65;0.65;;;;;;;6.07;82.70;97423.91;29394;198;64009;-69
2022/02/23 01:09:48;;;;;;;0.50;0.50;;;;;;;6.05;82.88;97427.66;29395;207;63009;-62
2022/02/23 01:10:19;;;;;;;0.50;0.50;;;;;;;6.00;82.88;97411.41;29395;196;63004;-74
2022/02/23 01:10:51;;;;;;;0.50;0.50;;;;;;;6.11;82.92;97416.94;29395;218;63009;-74
2022/02/23 01:11:22;;;;;;;0.50;0.50;;;;;;;6.16;82.62;97419.69;29395;234;63004;-56
2022/02/23 01:11:53;;;;;;;0.50;0.50;;;;;;;6.20;82.65;97431.59;29395;223;63025;-62
2022/02/23 01:12:25;;;;;;;0.50;0.50;;;;;;;6.20;82.49;97420.84;29395;237;63004;-58
2022/02/23 01:12:57;;;;;;;0.50;0.50;;;;;;;6.16;82.65;97419.69;29394;199;64014;-68
2022/02/23 01:13:32;;;;;;;0.50;0.50;;;;;;;6.11;82.78;97428.53;29395;231;63005;-68
2022/02/23 01:14:03;;;;;;;0.50;0.50;;;;;;;6.08;82.81;97428.22;29395;220;63009;-67
2022/02/23 01:14:38;;;;;;;0.50;0.50;;;;;;;6.07;82.84;97426.59;29395;228;63005;-54
2022/02/23 01:15:11;;;;;;;0.50;0.50;;;;;;;6.08;83.13;97429.03;29395;376;63009;-64
2022/02/23 01:15:43;;;;;;;0.50;0.50;;;;;;;6.08;82.94;97425.53;29394;235;64009;-68
2022/02/23 01:16:16;;;;;;;0.50;0.50;;;;;;;6.05;83.19;97427.66;29394;224;64013;-68
2022/02/23 01:16:47;;;;;;;0.50;0.50;;;;;;;6.03;83.32;97426.28;29395;228;63005;-60
2022/02/23 01:17:18;;;;;;;0.50;0.50;;;;;;;5.99;83.41;97415.19;29395;220;63009;-58
2022/02/23 01:17:54;;;;;;;0.50;0.50;;;;;;;5.98;83.38;97424.31;29394;276;64009;-61
2022/02/23 01:18:26;;;;;;;0.50;0.50;;;;;;;5.98;83.64;97424.31;29395;233;63009;-68
2022/02/23 01:18:57;;;;;;;0.50;0.50;;;;;;;5.99;83.38;97431.34;29395;227;63004;-71
2022/02/23 01:19:28;;;;;;;0.50;0.50;;;;;;;6.02;83.29;97424.66;29395;237;63008;-57
2022/02/23 01:20:00;;;;;;;0.50;0.50;;;;;;;6.07;83.31;97434.66;29395;239;63004;-67
2022/02/23 01:20:31;;;;;;;0.50;0.50;;;;;;;6.07;83.61;97431.97;29395;210;63009;-71
2022/02/23 01:21:03;;;;;;;0.50;0.50;;;;;;;6.04;83.44;97425.22;29394;220;64009;-60
2022/02/23 01:21:34;;;;;;;0.50;0.50;;;;;;;6.02;83.82;97430.03;29395;203;63009;-67
2022/02/23 01:22:06;;;;;;;0.40;0.40;;;;;;;5.99;83.50;97431.34;29395;210;63005;-68
2022/02/23 01:22:37;;;;;;;0.50;0.50;;;;;;;5.97;83.91;97433.47;29395;223;63009;-67
2022/02/23 01:23:08;;;;;;;0.50;0.50;;;;;;;6.00;84.01;97432.16;29394;236;64009;-69
2022/02/23 01:23:40;;;;;;;0.50;0.50;;;;;;;5.99;83.86;97433.22;29395;282;63009;-59
2022/02/23 01:24:11;;;;;;;0.50;0.50;;;;;;;6.05;83.75;97441.13;29395;223;63005;-66
2022/02/23 01:24:42;;;;;;;0.50;0.50;;;;;;;6.15;83.64;97431.53;29395;238;63009;-58
2022/02/23 01:25:13;;;;;;;0.50;0.50;;;;;;;6.16;83.43;97434.00;29395;205;63004;-59
2022/02/23 01:25:45;;;;;;;0.50;0.50;;;;;;;6.14;83.90;97438.00;29395;231;63009;-71
2022/02/23 01:26:17;;;;;;;0.50;0.50;;;;;;;6.14;83.86;97438.00;29395;212;63004;-64
2022/02/23 01:26:49;;;;;;;0.50;0.50;;;;;;;6.13;83.64;97439.06;29395;329;63009;-63
2022/02/23 01:27:21;;;;;;;0.50;0.50;;;;;;;6.18;83.88;97433.75;29395;242;63004;-66
2022/02/23 01:27:53;;;;;;;0.50;0.50;;;;;;;6.19;83.54;97432.69;29395;196;63009;-68
2022/02/23 01:28:24;;;;;;;0.43;0.43;;;;;;;6.21;83.46;97433.25;29394;214;64009;-66
2022/02/23 01:28:55;;;;;;;0.50;0.50;;;;;;;6.20;83.84;97431.59;29395;202;63009;-67
2022/02/23 01:29:26;;;;;;;0.50;0.50;;;;;;;6.16;83.61;97431.28;29395;263;63005;-66
2022/02/23 01:30:17;;;;;;;0.50;0.50;;;;;;;6.12;84.02;97437.44;29395;202;63005;-70
2022/02/23 01:30:49;;;;;;;0.60;0.60;;;;;;;6.09;84.11;97440.63;29395;204;63009;-69
2022/02/23 01:31:21;;;;;;;0.50;0.50;;;;;;;6.06;84.07;97436.56;29395;220;63005;-63
2022/02/23 01:31:56;;;;;;;0.50;0.50;;;;;;;6.07;84.33;97442.75;29394;205;64013;-67
2022/02/23 01:32:27;;;;;;;0.50;0.50;;;;;;;6.02;84.51;97447.00;29395;291;63004;-68
2022/02/23 01:32:59;;;;;;;0.50;0.50;;;;;;;6.00;84.95;97438.34;29395;221;63009;-69
2022/02/23 01:33:30;;;;;;;0.50;0.50;;;;;;;6.03;84.80;97448.63;29394;209;64009;-59
2022/02/23 01:34:02;;;;;;;0.50;0.50;;;;;;;6.10;84.85;97453.84;29395;225;63009;-73
2022/02/23 01:34:33;;;;;;;0.50;0.50;;;;;;;6.13;84.76;97442.56;29395;218;63004;-61
2022/02/23 01:35:06;;;;;;;0.50;0.50;;;;;;;6.11;84.77;97451.97;29395;268;63008;-59
2022/02/23 01:35:38;;;;;;;0.50;0.50;;;;;;;6.07;84.98;97448.13;29395;205;63019;-60
2022/02/23 01:36:09;;;;;;;0.50;0.50;;;;;;;6.05;84.98;97457.28;29395;393;63009;-56
2022/02/23 01:36:40;;;;;;;0.50;0.50;;;;;;;6.08;85.20;97447.06;29394;221;64009;-66
2022/02/23 01:37:13;;;;;;;0.50;0.50;;;;;;;6.04;85.06;97450.28;29394;272;64013;-61
2022/02/23 01:37:44;;;;;;;0.50;0.50;;;;;;;6.07;85.23;97450.84;29395;210;63005;-51
2022/02/23 01:38:17;;;;;;;0.50;0.50;;;;;;;6.08;84.99;97449.78;29395;223;63009;-53
2022/02/23 01:38:48;;;;;;;0.50;0.50;;;;;;;6.11;85.05;97450.09;29395;230;63005;-68
2022/02/23 01:39:19;;;;;;;0.50;0.50;;;;;;;6.08;85.04;97449.78;29395;199;63009;-68
2022/02/23 01:39:54;;;;;;;0.50;0.50;;;;;;;6.03;84.85;97451.34;29395;286;63004;-71
2022/02/23 01:40:27;;;;;;;0.50;0.50;;;;;;;5.98;84.91;97445.06;29395;202;63013;-60
2022/02/23 01:41:02;;;;;;;0.50;0.50;;;;;;;5.97;85.29;97460.41;29394;196;64009;-63
2022/02/23 01:41:33;;;;;;;0.50;0.50;;;;;;;5.96;85.71;97455.28;29395;281;63009;-63
2022/02/23 01:42:05;;;;;;;0.50;0.50;;;;;;;5.98;85.73;97451.25;29395;225;63003;-68
2022/02/23 01:42:36;;;;;;;0.50;0.50;;;;;;;6.02;85.41;97456.97;29395;203;63008;-67
2022/02/23 01:43:08;;;;;;;0.50;0.50;;;;;;;6.04;85.59;97461.03;29395;226;63005;-69
2022/02/23 01:43:39;;;;;;;0.50;0.50;;;;;;;6.05;85.17;97453.78;29395;294;63009;-68
2022/02/23 01:44:10;;;;;;;0.50;0.50;;;;;;;6.01;85.46;97458.03;29395;208;63005;-68
2022/02/23 01:44:42;;;;;;;0.50;0.50;;;;;;;5.97;85.51;97464.97;29395;353;63009;-59
2022/02/23 01:45:14;;;;;;;0.50;0.50;;;;;;;5.90;86.41;97459.78;29395;202;63005;-67
2022/02/23 01:45:45;;;;;;;0.50;0.50;;;;;;;5.87;86.46;97457.56;29395;202;63009;-60
2022/02/23 01:46:17;;;;;;;0.50;0.50;;;;;;;5.85;86.13;97465.09;29394;367;64009;-69
2022/02/23 01:46:48;;;;;;;0.50;0.50;;;;;;;5.84;86.47;97460.75;29395;197;63009;-60
2022/02/23 01:47:19;;;;;;;0.50;0.50;;;;;;;5.83;86.17;97463.69;29395;202;63004;-68
2022/02/23 01:47:50;;;;;;;0.50;0.50;;;;;;;5.82;86.30;97462.06;29395;206;63009;-68
2022/02/23 01:48:23;;;;;;;0.50;0.50;;;;;;;5.84;86.30;97471.53;29395;206;63013;-69
2022/02/23 01:48:54;;;;;;;0.50;0.50;;;;;;;5.83;86.30;97461.81;29395;231;63009;-66
2022/02/23 01:49:25;;;;;;;0.50;0.50;;;;;;;5.81;86.80;97465.81;29395;252;63004;-59
2022/02/23 01:49:57;;;;;;;0.50;0.50;;;;;;;5.79;87.06;97466.06;29395;202;63008;-68
2022/02/23 01:50:30;;;;;;;0.50;0.50;;;;;;;5.78;87.27;97477.91;29395;222;63005;-71
2022/02/23 01:51:04;;;;;;;0.60;0.60;;;;;;;5.87;86.46;97467.53;29394;232;64014;-74
2022/02/23 01:51:36;;;;;;;0.50;0.50;;;;;;;5.88;86.31;97467.28;29395;203;63005;-63
2022/02/23 01:52:07;;;;;;;0.50;0.50;;;;;;;5.88;86.40;97467.28;29395;203;63009;-59
2022/02/23 01:52:42;;;;;;;0.50;0.50;;;;;;;5.89;86.54;97474.31;29395;233;63005;-75
2022/02/23 01:53:14;;;;;;;0.50;0.50;;;;;;;5.91;86.59;97468.66;29395;352;63009;-66
2022/02/23 01:53:45;;;;;;;0.50;0.50;;;;;;;5.94;86.42;97470.87;29395;237;63005;-60
2022/02/23 01:54:16;;;;;;;0.50;0.50;;;;;;;5.95;86.32;97478.69;29395;307;63009;-70
2022/02/23 01:54:47;;;;;;;0.50;0.50;;;;;;;5.98;85.91;97482.78;29395;230;63004;-72
2022/02/23 01:55:22;;;;;;;0.50;0.50;;;;;;;5.97;85.94;97487.34;29394;202;64013;-72
2022/02/23 01:55:54;;;;;;;0.50;0.50;;;;;;;5.97;85.96;97508.06;29395;219;63004;-68
2022/02/23 01:56:27;;;;;;;0.50;0.50;;;;;;;5.93;86.34;97517.72;29395;198;63009;-57
2022/02/23 01:56:59;;;;;;;0.50;0.50;;;;;;;5.90;86.60;97529.78;29394;213;64009;-58
2022/02/23 01:57:34;;;;;;;0.50;0.50;;;;;;;5.87;86.80;97538.38;29395;329;63008;-56
2022/02/23 01:58:06;;;;;;;0.50;0.50;;;;;;;5.83;87.23;97531.03;29395;207;63005;-67
2022/02/23 01:58:41;;;;;;;0.68;0.68;;;;;;;5.81;87.21;97525.06;29395;203;63009;-68
2022/02/23 01:59:13;;;;;;;0.60;0.60;;;;;;;5.76;84.57;97533.88;29395;234;63009;-67
2022/02/23 01:59:46;;;;;;;0.50;0.50;;;;;;;5.69;81.98;97538.63;29395;228;63009;-61
2022/02/23 02:00:18;;;;;;;0.50;0.50;;;;;;;5.71;80.81;97541.88;29395;238;63005;-65
2022/02/23 02:00:50;;;;;;;0.50;0.50;;;;;;;5.75;79.29;97542.19;29395;227;63009;-69
2022/02/23 02:01:21;;;;;;;0.50;0.50;;;;;;;5.76;79.32;97554.59;29394;214;64009;-52
2022/02/23 02:01:52;;;;;;;0.50;0.50;;;;;;;5.72;79.04;97559.66;29395;197;63009;-66
2022/02/23 02:02:26;;;;;;;0.70;0.70;;;;;;;5.64;79.56;97568.16;29395;239;63004;-58
2022/02/23 02:02:58;;;;;;;0.60;0.60;;;;;;;5.46;80.29;97566.53;29394;228;64013;-71
2022/02/23 02:03:29;;;;;;;0.50;0.50;;;;;;;5.30;80.93;97578.88;29395;243;63004;-68
2022/02/23 02:04:01;;;;;;;0.60;0.60;;;;;;;5.16;81.39;97582.94;29395;222;63009;-71
2022/02/23 02:04:33;;;;;;;0.55;0.55;;;;;;;5.02;81.30;97586.97;29395;197;63004;-79
2022/02/23 02:05:06;;;;;;;0.60;0.60;;;;;;;4.94;82.37;97581.97;29395;223;63008;-61
2022/02/23 02:05:37;;;;;;;0.52;0.52;;;;;;;4.86;81.95;97576.97;29395;290;63005;-66
2022/02/23 02:06:09;;;;;;;0.50;0.50;;;;;;;4.77;82.76;97578.44;29395;233;63009;-63
2022/02/23 02:06:40;;;;;;;1.05;1.05;;;;;;;4.70;82.93;97574.00;29394;212;64009;-71
2022/02/23 02:07:11;;;;;;;0.60;0.60;;;;;;;4.61;83.56;97579.97;29395;222;63023;-67
2022/02/23 02:07:43;;;;;;;0.50;0.50;;;;;;;4.55;84.54;97575.56;29395;279;63005;-65
2022/02/23 02:08:14;;;;;;;0.50;0.50;;;;;;;4.50;84.75;97573.59;29395;197;63009;-65
2022/02/23 02:08:45;;;;;;;0.50;0.50;;;;;;;4.46;84.70;97571.63;29373;208;63005;-62
2022/02/23 02:09:20;;;;;;;0.98;0.98;;;;;;;4.40;84.30;97576.06;29373;234;63017;-58
2022/02/23 02:09:52;;;;;;;0.50;0.50;;;;;;;4.35;85.03;97570.59;29371;246;64009;-65
2022/02/23 02:10:23;;;;;;;0.60;0.60;;;;;;;4.29;84.69;97556.22;29395;237;63009;-63
2022/02/23 02:10:54;;;;;;;0.50;0.50;;;;;;;4.25;85.49;97570.34;29373;202;63004;-59
2022/02/23 02:11:26;;;;;;;0.50;0.50;;;;;;;4.17;85.67;97571.53;29373;288;63021;-62
2022/02/23 02:11:59;;;;;;;0.60;0.60;;;;;;;4.11;86.13;97577.87;29373;238;63004;-57
2022/02/23 02:12:30;;;;;;;0.57;0.57;;;;;;;4.12;86.70;97581.38;29373;273;63008;-52
2022/02/23 02:13:06;;;;;;;0.50;0.50;;;;;;;4.11;86.76;97575.19;29373;202;63004;-54
2022/02/23 02:13:37;;;;;;;0.60;0.60;;;;;;;4.09;86.68;97581.84;29373;343;63009;-54
2022/02/23 02:14:08;;;;;;;0.50;0.50;;;;;;;4.09;86.84;97588.03;29371;199;64009;-68
2022/02/23 02:14:40;;;;;;;0.60;0.60;;;;;;;4.06;86.94;97588.50;29373;351;63009;-66
2022/02/23 02:15:11;;;;;;;0.60;0.60;;;;;;;4.05;87.12;97584.16;29373;268;63005;-54
2022/02/23 02:15:43;;;;;;;0.70;0.70;;;;;;;4.04;86.88;97586.03;29373;322;63009;-56
2022/02/23 02:16:15;;;;;;;0.57;0.57;;;;;;;4.01;86.64;97586.50;29373;196;63005;-54
2022/02/23 02:16:47;;;;;;;0.55;0.55;;;;;;;4.00;87.12;97584.87;29373;376;63009;-59
2022/02/23 02:17:18;;;;;;;0.60;0.60;;;;;;;3.99;86.75;97583.22;29373;218;63004;-56
2022/02/23 02:17:49;;;;;;;0.60;0.60;;;;;;;3.98;86.49;97581.59;29373;265;63009;-71
2022/02/23 02:18:20;;;;;;;0.50;0.50;;;;;;;3.97;86.55;97579.16;29371;326;64009;-71
2022/02/23 02:18:52;;;;;;;0.60;0.60;;;;;;;3.94;86.96;97580.44;29373;206;63009;-57
2022/02/23 02:19:23;;;;;;;0.60;0.60;;;;;;;3.88;86.89;97591.28;29373;299;63004;-63
2022/02/23 02:19:55;;;;;;;0.52;0.52;;;;;;;3.89;87.39;97585.69;29373;321;63009;-67
2022/02/23 02:20:27;;;;;;;0.60;0.60;;;;;;;3.89;87.04;97588.34;29373;306;63005;-68
2022/02/23 02:20:58;;;;;;;0.60;0.60;;;;;;;3.86;86.82;97588.00;29373;209;63009;-59
2022/02/23 02:21:50;;;;;;;3.22;0.80;;;;;;;3.86;86.72;97586.13;29371;218;64009;-56
2022/02/23 02:22:21;;;;;;;0.60;0.60;;;;;;;3.87;87.15;97595.00;29395;207;63009;-54
2022/02/23 02:22:52;;;;;;;0.60;0.60;;;;;;;3.87;86.68;97590.47;29395;240;63005;-63
2022/02/23 02:23:24;;;;;;;0.60;0.60;;;;;;;3.83;86.53;97586.59;29373;249;63009;-53
2022/02/23 02:23:55;;;;;;;0.50;0.50;;;;;;;3.80;86.83;97583.59;29373;197;63005;-59
2022/02/23 02:24:29;;;;;;;0.60;0.60;;;;;;;3.80;87.29;97584.41;29373;350;63009;-61
2022/02/23 02:25:00;;;;;;;0.50;0.50;;;;;;;3.79;87.14;97582.78;29373;224;63004;-57
2022/02/23 02:25:31;;;;;;;0.50;0.50;;;;;;;3.77;86.97;97587.56;29373;197;63009;-59
2022/02/23 02:26:03;;;;;;;0.50;0.50;;;;;;;3.78;86.91;97585.69;29371;202;64009;-61
2022/02/23 02:26:34;;;;;;;0.60;0.60;;;;;;;3.80;86.68;97595.16;29373;337;63008;-64
2022/02/23 02:27:09;;;;;;;0.60;0.60;;;;;;;3.75;87.11;97586.97;29373;215;63004;-65
2022/02/23 02:27:40;;;;;;;0.60;0.60;;;;;;;3.74;87.25;97589.88;29373;219;63009;-53
2022/02/23 02:28:12;;;;;;;0.60;0.60;;;;;;;3.76;87.19;97593.97;29373;204;63005;-58
2022/02/23 02:28:43;;;;;;;0.60;0.60;;;;;;;3.74;86.92;97590.69;29373;205;63009;-67
2022/02/23 02:29:15;;;;;;;0.50;0.50;;;;;;;3.68;87.16;97594.31;29373;234;63008;-55
2022/02/23 02:29:46;;;;;;;0.50;0.50;;;;;;;3.71;87.70;97593.84;29373;258;63009;-61
2022/02/23 02:30:17;;;;;;;0.50;0.50;;;;;;;3.69;87.63;97602.13;29373;310;63005;-60
2022/02/23 02:30:49;;;;;;;0.60;0.60;;;;;;;3.70;87.54;97589.53;29373;219;63009;-58
2022/02/23 02:31:20;;;;;;;0.60;0.60;;;;;;;3.72;87.29;97603.53;29371;310;64009;-56
2022/02/23 02:31:51;;;;;;;0.80;0.80;;;;;;;3.76;86.76;97591.28;29373;279;63009;-59
2022/02/23 02:32:22;;;;;;;0.60;0.60;;;;;;;3.77;86.10;97598.28;29373;307;63004;-59
2022/02/23 02:32:57;;;;;;;0.50;0.50;;;;;;;3.80;86.27;97600.50;29373;315;63009;-63
2022/02/23 02:33:31;;;;;;;0.50;0.50;;;;;;;3.78;86.54;97604.47;29373;198;63010;-60
2022/02/23 02:34:02;;;;;;;0.52;0.52;;;;;;;3.78;87.11;97601.78;29371;221;64013;-63
2022/02/23 02:34:34;;;;;;;0.60;0.60;;;;;;;3.81;86.57;97602.13;29372;263;63004;-62